sensor_id;sensor_type;location;lat;lon;timestamp;pressure;altitude;pressure_sealevel;temperature;humidity
41254;BME280;26987;59.928;30.306;2023-08-08T00:00:45;100035.47;;;23.75;74.19
41254;BME280;26987;59.928;30.306;2023-08-08T00:03:13;100046.91;;;23.77;74.04
41254;BME280;26987;59.928;30.306;2023-08-08T00:05:41;100041.88;;;23.70;74.41
41254;BME280;26987;59.928;30.306;2023-08-08T00:08:08;100051.22;;;23.69;74.71
41254;BME280;26987;59.928;30.306;2023-08-08T00:10:36;100058.63;;;23.68;74.50
41254;BME280;26987;59.928;30.306;2023-08-08T00:13:05;100059.22;;;23.65;75.04
41254;BME280;26987;59.928;30.306;2023-08-08T00:15:33;100052.78;;;23.61;75.16
41254;BME280;26987;59.928;30.306;2023-08-08T00:18:01;100032.75;;;23.52;74.94
41254;BME280;26987;59.928;30.306;2023-08-08T00:20:29;100047.13;;;23.58;75.21
41254;BME280;26987;59.928;30.306;2023-08-08T00:22:57;100042.09;;;23.51;75.50
41254;BME280;26987;59.928;30.306;2023-08-08T00:25:25;100040.28;;;23.46;75.56
41254;BME280;26987;59.928;30.306;2023-08-08T00:27:53;100044.13;;;23.45;75.39
41254;BME280;26987;59.928;30.306;2023-08-08T00:30:22;100042.53;;;23.44;75.82
41254;BME280;26987;59.928;30.306;2023-08-08T00:32:50;100046.88;;;23.45;76.11
41254;BME280;26987;59.928;30.306;2023-08-08T00:35:19;100024.63;;;23.38;76.15
41254;BME280;26987;59.928;30.306;2023-08-08T00:37:47;100039.31;;;23.42;76.24
41254;BME280;26987;59.928;30.306;2023-08-08T00:40:15;100028.75;;;23.35;76.39
41254;BME280;26987;59.928;30.306;2023-08-08T00:42:43;100043.56;;;23.34;76.79
41254;BME280;26987;59.928;30.306;2023-08-08T00:45:11;100029.69;;;23.30;76.99
41254;BME280;26987;59.928;30.306;2023-08-08T00:47:40;100027.56;;;23.27;76.90
41254;BME280;26987;59.928;30.306;2023-08-08T00:50:09;100013.03;;;23.18;77.17
41254;BME280;26987;59.928;30.306;2023-08-08T00:52:38;100031.75;;;23.25;77.17
41254;BME280;26987;59.928;30.306;2023-08-08T00:55:07;100031.06;;;23.19;77.17
41254;BME280;26987;59.928;30.306;2023-08-08T00:57:35;100029.06;;;23.11;77.32
41254;BME280;26987;59.928;30.306;2023-08-08T01:00:06;100037.31;;;23.19;77.60
41254;BME280;26987;59.928;30.306;2023-08-08T01:02:34;100029.44;;;23.18;77.42
41254;BME280;26987;59.928;30.306;2023-08-08T01:05:04;100037.47;;;23.14;78.04
41254;BME280;26987;59.928;30.306;2023-08-08T01:07:37;100015.53;;;23.05;78.23
41254;BME280;26987;59.928;30.306;2023-08-08T01:10:10;100018.25;;;23.05;78.51
41254;BME280;26987;59.928;30.306;2023-08-08T01:12:41;100024.34;;;23.02;78.46
41254;BME280;26987;59.928;30.306;2023-08-08T01:15:10;100034.75;;;23.00;78.71
41254;BME280;26987;59.928;30.306;2023-08-08T01:17:39;100023.72;;;23.05;78.65
41254;BME280;26987;59.928;30.306;2023-08-08T01:20:11;100022.69;;;23.01;79.01
41254;BME280;26987;59.928;30.306;2023-08-08T01:22:48;100014.50;;;23.01;78.82
41254;BME280;26987;59.928;30.306;2023-08-08T01:25:20;100013.19;;;22.99;79.25
41254;BME280;26987;59.928;30.306;2023-08-08T01:27:49;99995.00;;;22.94;79.14
41254;BME280;26987;59.928;30.306;2023-08-08T01:30:17;99965.38;;;22.87;79.47
41254;BME280;26987;59.928;30.306;2023-08-08T01:32:45;99986.63;;;22.90;79.36
41254;BME280;26987;59.928;30.306;2023-08-08T01:35:13;99990.66;;;22.93;79.63
41254;BME280;26987;59.928;30.306;2023-08-08T01:37:44;99987.09;;;22.92;79.50
41254;BME280;26987;59.928;30.306;2023-08-08T01:40:16;99979.22;;;22.91;79.49
41254;BME280;26987;59.928;30.306;2023-08-08T01:42:47;99990.66;;;22.93;79.57
41254;BME280;26987;59.928;30.306;2023-08-08T01:45:16;99990.44;;;22.89;79.53
41254;BME280;26987;59.928;30.306;2023-08-08T01:47:49;99993.69;;;22.91;79.66
41254;BME280;26987;59.928;30.306;2023-08-08T01:50:18;99983.38;;;22.88;79.69
41254;BME280;26987;59.928;30.306;2023-08-08T01:52:47;99975.31;;;22.83;79.84
41254;BME280;26987;59.928;30.306;2023-08-08T01:55:15;99997.88;;;22.89;79.41
41254;BME280;26987;59.928;30.306;2023-08-08T01:57:43;99977.44;;;22.86;79.47
41254;BME280;26987;59.928;30.306;2023-08-08T02:00:13;99959.94;;;22.73;79.26
41254;BME280;26987;59.928;30.306;2023-08-08T02:02:43;99982.56;;;22.88;79.28
41254;BME280;26987;59.928;30.306;2023-08-08T02:05:12;99980.47;;;22.85;79.40
41254;BME280;26987;59.928;30.306;2023-08-08T02:07:39;99983.22;;;22.85;79.37
41254;BME280;26987;59.928;30.306;2023-08-08T02:10:08;99992.69;;;22.87;79.37
41254;BME280;26987;59.928;30.306;2023-08-08T02:12:35;99989.66;;;22.89;79.05
41254;BME280;26987;59.928;30.306;2023-08-08T02:15:04;99991.28;;;22.90;79.39
41254;BME280;26987;59.928;30.306;2023-08-08T02:17:35;99988.53;;;22.90;79.07
41254;BME280;26987;59.928;30.306;2023-08-08T02:20:04;99981.31;;;22.94;78.94
41254;BME280;26987;59.928;30.306;2023-08-08T02:22:32;99987.00;;;22.98;78.78
41254;BME280;26987;59.928;30.306;2023-08-08T02:25:00;99985.56;;;23.00;78.67
41254;BME280;26987;59.928;30.306;2023-08-08T02:27:28;99993.81;;;23.09;78.27
41254;BME280;26987;59.928;30.306;2023-08-08T02:29:56;99994.41;;;23.20;77.70
41254;BME280;26987;59.928;30.306;2023-08-08T02:32:24;99982.06;;;23.31;77.00
41254;BME280;26987;59.928;30.306;2023-08-08T02:34:55;99975.44;;;23.47;76.18
41254;BME280;26987;59.928;30.306;2023-08-08T02:37:24;99978.25;;;23.55;75.53
41254;BME280;26987;59.928;30.306;2023-08-08T02:39:52;99979.94;;;23.74;74.69
41254;BME280;26987;59.928;30.306;2023-08-08T02:42:20;99980.00;;;23.92;73.89
41254;BME280;26987;59.928;30.306;2023-08-08T02:44:48;99959.13;;;24.05;73.12
41254;BME280;26987;59.928;30.306;2023-08-08T02:47:16;99971.63;;;24.29;71.82
41254;BME280;26987;59.928;30.306;2023-08-08T02:49:45;99966.09;;;24.11;72.60
41254;BME280;26987;59.928;30.306;2023-08-08T02:52:14;99958.38;;;24.13;72.11
41254;BME280;26987;59.928;30.306;2023-08-08T02:54:42;99961.38;;;24.03;72.33
41254;BME280;26987;59.928;30.306;2023-08-08T02:57:10;99960.03;;;23.83;73.34
41254;BME280;26987;59.928;30.306;2023-08-08T02:59:39;99940.63;;;23.61;74.24
41254;BME280;26987;59.928;30.306;2023-08-08T03:02:09;99961.53;;;23.57;74.82
41254;BME280;26987;59.928;30.306;2023-08-08T03:04:39;99959.84;;;23.47;75.16
41254;BME280;26987;59.928;30.306;2023-08-08T03:07:08;99959.81;;;23.38;75.38
41254;BME280;26987;59.928;30.306;2023-08-08T03:09:38;99964.16;;;23.39;75.86
41254;BME280;26987;59.928;30.306;2023-08-08T03:12:09;99957.47;;;23.31;75.55
41254;BME280;26987;59.928;30.306;2023-08-08T03:14:38;99983.97;;;23.45;75.52
41254;BME280;26987;59.928;30.306;2023-08-08T03:17:05;99961.44;;;23.48;74.98
41254;BME280;26987;59.928;30.306;2023-08-08T03:19:33;99971.72;;;23.74;74.22
41254;BME280;26987;59.928;30.306;2023-08-08T03:22:03;99973.34;;;23.75;73.47
41254;BME280;26987;59.928;30.306;2023-08-08T03:24:34;99970.13;;;23.73;73.57
41254;BME280;26987;59.928;30.306;2023-08-08T03:27:03;99969.47;;;23.67;73.75
41254;BME280;26987;59.928;30.306;2023-08-08T03:29:31;99975.25;;;23.66;73.57
41254;BME280;26987;59.928;30.306;2023-08-08T03:31:59;99981.34;;;23.63;74.03
41254;BME280;26987;59.928;30.306;2023-08-08T03:34:31;99976.00;;;23.58;74.25
41254;BME280;26987;59.928;30.306;2023-08-08T03:36:59;99976.31;;;23.56;74.58
41254;BME280;26987;59.928;30.306;2023-08-08T03:39:27;99970.16;;;23.50;74.38
41254;BME280;26987;59.928;30.306;2023-08-08T03:41:55;99968.19;;;23.42;74.81
41254;BME280;26987;59.928;30.306;2023-08-08T03:44:24;99974.78;;;23.41;74.77
41254;BME280;26987;59.928;30.306;2023-08-08T03:46:53;99974.97;;;23.45;74.69
41254;BME280;26987;59.928;30.306;2023-08-08T03:49:20;99964.56;;;23.55;74.29
41254;BME280;26987;59.928;30.306;2023-08-08T03:51:48;99975.78;;;23.86;73.40
41254;BME280;26987;59.928;30.306;2023-08-08T03:54:17;99980.94;;;24.19;71.40
41254;BME280;26987;59.928;30.306;2023-08-08T03:56:45;99965.81;;;24.30;71.14
41254;BME280;26987;59.928;30.306;2023-08-08T03:59:13;99951.81;;;24.23;70.57
41254;BME280;26987;59.928;30.306;2023-08-08T04:01:43;99974.97;;;24.17;71.68
41254;BME280;26987;59.928;30.306;2023-08-08T04:04:11;99963.28;;;24.02;71.91
41254;BME280;26987;59.928;30.306;2023-08-08T04:06:39;99928.72;;;23.66;72.75
41254;BME280;26987;59.928;30.306;2023-08-08T04:09:06;99961.72;;;23.69;73.25
41254;BME280;26987;59.928;30.306;2023-08-08T04:11:34;99940.91;;;23.51;73.42
41254;BME280;26987;59.928;30.306;2023-08-08T04:14:02;99954.25;;;23.52;74.36
41254;BME280;26987;59.928;30.306;2023-08-08T04:16:30;99942.25;;;23.39;74.64
41254;BME280;26987;59.928;30.306;2023-08-08T04:18:59;99965.63;;;23.46;74.91
41254;BME280;26987;59.928;30.306;2023-08-08T04:21:29;99983.66;;;23.47;74.85
41254;BME280;26987;59.928;30.306;2023-08-08T04:23:59;99958.47;;;23.36;74.33
41254;BME280;26987;59.928;30.306;2023-08-08T04:26:27;99946.84;;;23.30;74.42
41254;BME280;26987;59.928;30.306;2023-08-08T04:28:55;99964.19;;;23.48;74.08
41254;BME280;26987;59.928;30.306;2023-08-08T04:31:22;99952.59;;;23.42;74.68
41254;BME280;26987;59.928;30.306;2023-08-08T04:33:52;99958.38;;;23.41;74.62
41254;BME280;26987;59.928;30.306;2023-08-08T04:36:26;99963.13;;;23.35;74.69
41254;BME280;26987;59.928;30.306;2023-08-08T04:38:54;99981.75;;;23.33;75.25
41254;BME280;26987;59.928;30.306;2023-08-08T04:41:22;99988.06;;;23.34;75.38
41254;BME280;26987;59.928;30.306;2023-08-08T04:43:50;99992.94;;;23.37;75.16
41254;BME280;26987;59.928;30.306;2023-08-08T04:46:17;100001.13;;;23.37;75.33
41254;BME280;26987;59.928;30.306;2023-08-08T04:48:45;99995.44;;;23.33;75.19
41254;BME280;26987;59.928;30.306;2023-08-08T04:51:13;100000.81;;;23.38;74.80
41254;BME280;26987;59.928;30.306;2023-08-08T04:53:42;100006.34;;;23.47;74.78
41254;BME280;26987;59.928;30.306;2023-08-08T04:56:10;100013.00;;;23.55;74.57
41254;BME280;26987;59.928;30.306;2023-08-08T04:58:38;100010.41;;;23.59;74.51
41254;BME280;26987;59.928;30.306;2023-08-08T05:01:06;100015.06;;;23.49;74.91
41254;BME280;26987;59.928;30.306;2023-08-08T05:03:35;100008.72;;;23.40;74.99
41254;BME280;26987;59.928;30.306;2023-08-08T05:06:03;99997.38;;;23.33;77.06
41254;BME280;26987;59.928;30.306;2023-08-08T05:08:31;100016.25;;;23.20;79.53
41254;BME280;26987;59.928;30.306;2023-08-08T05:11:00;100027.78;;;22.94;82.82
41254;BME280;26987;59.928;30.306;2023-08-08T05:13:28;100024.19;;;22.56;89.00
41254;BME280;26987;59.928;30.306;2023-08-08T05:15:56;100024.75;;;22.30;90.85
41254;BME280;26987;59.928;30.306;2023-08-08T05:18:23;100042.63;;;22.09;93.46
41254;BME280;26987;59.928;30.306;2023-08-08T05:20:51;100007.47;;;21.60;95.38
41254;BME280;26987;59.928;30.306;2023-08-08T05:23:19;100051.41;;;21.58;98.29
41254;BME280;26987;59.928;30.306;2023-08-08T05:25:47;100068.81;;;21.43;100.00
41254;BME280;26987;59.928;30.306;2023-08-08T05:28:16;100073.91;;;21.30;100.00
41254;BME280;26987;59.928;30.306;2023-08-08T05:30:44;100071.69;;;21.13;100.00
41254;BME280;26987;59.928;30.306;2023-08-08T05:33:12;100083.09;;;20.96;100.00
41254;BME280;26987;59.928;30.306;2023-08-08T05:35:40;100064.34;;;20.70;100.00
41254;BME280;26987;59.928;30.306;2023-08-08T05:38:07;100089.88;;;20.74;100.00
41254;BME280;26987;59.928;30.306;2023-08-08T05:40:35;100095.44;;;20.64;100.00
41254;BME280;26987;59.928;30.306;2023-08-08T05:43:03;100080.41;;;20.47;100.00
41254;BME280;26987;59.928;30.306;2023-08-08T05:45:33;100085.03;;;20.22;100.00
41254;BME280;26987;59.928;30.306;2023-08-08T05:48:01;100088.94;;;20.11;100.00
41254;BME280;26987;59.928;30.306;2023-08-08T05:50:28;100085.72;;;20.09;100.00
41254;BME280;26987;59.928;30.306;2023-08-08T05:52:56;100069.88;;;20.11;100.00
41254;BME280;26987;59.928;30.306;2023-08-08T05:55:24;100070.47;;;20.08;100.00
41254;BME280;26987;59.928;30.306;2023-08-08T05:57:52;100063.41;;;20.07;100.00
41254;BME280;26987;59.928;30.306;2023-08-08T06:00:20;100079.88;;;20.21;100.00
41254;BME280;26987;59.928;30.306;2023-08-08T06:02:50;100081.72;;;20.25;100.00
41254;BME280;26987;59.928;30.306;2023-08-08T06:05:19;100085.75;;;20.33;100.00
41254;BME280;26987;59.928;30.306;2023-08-08T06:07:49;100086.13;;;20.46;100.00
41254;BME280;26987;59.928;30.306;2023-08-08T06:10:17;100093.13;;;21.20;100.00
41254;BME280;26987;59.928;30.306;2023-08-08T06:12:45;100101.38;;;21.53;100.00
41254;BME280;26987;59.928;30.306;2023-08-08T06:15:12;100099.72;;;21.52;100.00
41254;BME280;26987;59.928;30.306;2023-08-08T06:17:40;100117.50;;;21.50;100.00
41254;BME280;26987;59.928;30.306;2023-08-08T06:20:10;100094.97;;;21.25;100.00
41254;BME280;26987;59.928;30.306;2023-08-08T06:22:39;100102.84;;;21.26;100.00
41254;BME280;26987;59.928;30.306;2023-08-08T06:25:07;100109.53;;;21.34;100.00
41254;BME280;26987;59.928;30.306;2023-08-08T06:27:35;100104.31;;;21.38;100.00
41254;BME280;26987;59.928;30.306;2023-08-08T06:30:04;100110.94;;;21.51;100.00
41254;BME280;26987;59.928;30.306;2023-08-08T06:32:32;100111.16;;;21.54;100.00
41254;BME280;26987;59.928;30.306;2023-08-08T06:35:00;100113.88;;;21.54;100.00
41254;BME280;26987;59.928;30.306;2023-08-08T06:37:29;100117.56;;;21.64;100.00
41254;BME280;26987;59.928;30.306;2023-08-08T06:39:57;100130.69;;;21.62;100.00
41254;BME280;26987;59.928;30.306;2023-08-08T06:42:25;100130.91;;;21.65;100.00
41254;BME280;26987;59.928;30.306;2023-08-08T06:44:57;100121.34;;;22.01;100.00
41254;BME280;26987;59.928;30.306;2023-08-08T06:47:25;100135.44;;;23.21;97.29
41254;BME280;26987;59.928;30.306;2023-08-08T06:49:54;100137.91;;;24.37;89.81
41254;BME280;26987;59.928;30.306;2023-08-08T06:52:22;100141.50;;;25.05;84.72
41254;BME280;26987;59.928;30.306;2023-08-08T06:54:52;100156.41;;;25.75;81.34
41254;BME280;26987;59.928;30.306;2023-08-08T06:57:21;100154.09;;;26.03;77.46
41254;BME280;26987;59.928;30.306;2023-08-08T06:59:50;100147.44;;;26.13;76.31
41254;BME280;26987;59.928;30.306;2023-08-08T07:02:19;100141.75;;;26.27;77.72
41254;BME280;26987;59.928;30.306;2023-08-08T07:04:48;100161.19;;;26.22;75.99
41254;BME280;26987;59.928;30.306;2023-08-08T07:07:16;100165.16;;;25.77;75.48
41254;BME280;26987;59.928;30.306;2023-08-08T07:09:47;100168.59;;;25.06;78.50
41254;BME280;26987;59.928;30.306;2023-08-08T07:12:19;100173.72;;;24.50;81.35
41254;BME280;26987;59.928;30.306;2023-08-08T07:14:48;100163.63;;;24.04;83.72
41254;BME280;26987;59.928;30.306;2023-08-08T07:17:16;100156.34;;;23.77;85.87
41254;BME280;26987;59.928;30.306;2023-08-08T07:19:45;100173.47;;;23.83;85.45
41254;BME280;26987;59.928;30.306;2023-08-08T07:22:13;100178.31;;;23.86;85.24
41254;BME280;26987;59.928;30.306;2023-08-08T07:24:43;100184.28;;;23.88;83.82
41254;BME280;26987;59.928;30.306;2023-08-08T07:27:11;100158.03;;;23.64;83.52
41254;BME280;26987;59.928;30.306;2023-08-08T07:29:41;100189.25;;;23.63;84.63
41254;BME280;26987;59.928;30.306;2023-08-08T07:32:10;100184.25;;;23.42;85.23
41254;BME280;26987;59.928;30.306;2023-08-08T07:34:38;100197.47;;;23.35;85.77
41254;BME280;26987;59.928;30.306;2023-08-08T07:37:07;100201.56;;;23.23;86.60
41254;BME280;26987;59.928;30.306;2023-08-08T07:39:35;100193.97;;;23.20;86.46
41254;BME280;26987;59.928;30.306;2023-08-08T07:42:04;100196.81;;;23.43;88.14
41254;BME280;26987;59.928;30.306;2023-08-08T07:44:32;100200.53;;;23.47;85.63
41254;BME280;26987;59.928;30.306;2023-08-08T07:47:03;100201.91;;;23.59;84.91
41254;BME280;26987;59.928;30.306;2023-08-08T07:49:32;100201.06;;;23.72;84.98
41254;BME280;26987;59.928;30.306;2023-08-08T07:52:00;100202.47;;;23.84;83.15
41254;BME280;26987;59.928;30.306;2023-08-08T07:54:29;100203.44;;;23.88;82.17
41254;BME280;26987;59.928;30.306;2023-08-08T07:56:58;100203.34;;;23.93;81.86
41254;BME280;26987;59.928;30.306;2023-08-08T07:59:26;100203.63;;;24.37;82.24
41254;BME280;26987;59.928;30.306;2023-08-08T08:01:57;100179.28;;;24.67;77.38
41254;BME280;26987;59.928;30.306;2023-08-08T08:04:27;100204.22;;;24.98;75.62
41254;BME280;26987;59.928;30.306;2023-08-08T08:06:57;100200.25;;;25.13;75.73
41254;BME280;26987;59.928;30.306;2023-08-08T08:09:26;100201.25;;;25.35;74.62
41254;BME280;26987;59.928;30.306;2023-08-08T08:11:55;100209.66;;;25.47;73.37
41254;BME280;26987;59.928;30.306;2023-08-08T08:14:25;100207.06;;;25.24;73.02
41254;BME280;26987;59.928;30.306;2023-08-08T08:16:54;100210.06;;;25.14;71.21
41254;BME280;26987;59.928;30.306;2023-08-08T08:19:24;100220.72;;;25.15;71.61
41254;BME280;26987;59.928;30.306;2023-08-08T08:21:56;100231.69;;;25.06;73.52
41254;BME280;26987;59.928;30.306;2023-08-08T08:24:24;100230.81;;;24.88;72.93
41254;BME280;26987;59.928;30.306;2023-08-08T08:26:53;100225.19;;;24.62;74.08
41254;BME280;26987;59.928;30.306;2023-08-08T08:29:21;100252.88;;;24.51;74.27
41254;BME280;26987;59.928;30.306;2023-08-08T08:31:51;100268.03;;;24.12;76.41
41254;BME280;26987;59.928;30.306;2023-08-08T08:34:20;100259.78;;;23.89;78.51
41254;BME280;26987;59.928;30.306;2023-08-08T08:36:48;100272.25;;;23.58;80.08
41254;BME280;26987;59.928;30.306;2023-08-08T08:39:19;100284.66;;;23.78;79.10
41254;BME280;26987;59.928;30.306;2023-08-08T08:41:49;100260.81;;;23.93;77.48
41254;BME280;26987;59.928;30.306;2023-08-08T08:44:21;100290.56;;;24.09;74.48
41254;BME280;26987;59.928;30.306;2023-08-08T08:46:53;100302.31;;;24.23;73.76
41254;BME280;26987;59.928;30.306;2023-08-08T08:49:23;100295.19;;;24.45;72.79
41254;BME280;26987;59.928;30.306;2023-08-08T08:51:53;100310.69;;;24.73;71.37
41254;BME280;26987;59.928;30.306;2023-08-08T08:54:24;100307.00;;;24.77;70.45
41254;BME280;26987;59.928;30.306;2023-08-08T08:56:53;100305.00;;;24.92;70.28
41254;BME280;26987;59.928;30.306;2023-08-08T08:59:22;100322.97;;;25.07;69.62
41254;BME280;26987;59.928;30.306;2023-08-08T09:01:51;100319.75;;;25.14;69.04
41254;BME280;26987;59.928;30.306;2023-08-08T09:04:22;100331.31;;;25.34;68.68
41254;BME280;26987;59.928;30.306;2023-08-08T09:06:51;100322.31;;;25.42;66.42
41254;BME280;26987;59.928;30.306;2023-08-08T09:09:20;100326.84;;;25.55;65.66
41254;BME280;26987;59.928;30.306;2023-08-08T09:11:52;100331.91;;;25.62;65.72
41254;BME280;26987;59.928;30.306;2023-08-08T09:14:23;100325.13;;;25.60;65.27
41254;BME280;26987;59.928;30.306;2023-08-08T09:16:52;100337.38;;;25.62;64.04
41254;BME280;26987;59.928;30.306;2023-08-08T09:19:21;100343.06;;;25.75;64.04
41254;BME280;26987;59.928;30.306;2023-08-08T09:21:52;100351.81;;;26.03;63.29
41254;BME280;26987;59.928;30.306;2023-08-08T09:24:22;100352.47;;;26.27;61.71
41254;BME280;26987;59.928;30.306;2023-08-08T09:26:54;100365.09;;;26.45;61.08
41254;BME280;26987;59.928;30.306;2023-08-08T09:29:23;100374.44;;;26.27;59.30
41254;BME280;26987;59.928;30.306;2023-08-08T09:31:52;100371.38;;;26.28;59.08
41254;BME280;26987;59.928;30.306;2023-08-08T09:34:24;100374.31;;;26.50;57.89
41254;BME280;26987;59.928;30.306;2023-08-08T09:36:59;100365.44;;;26.44;56.81
41254;BME280;26987;59.928;30.306;2023-08-08T09:39:29;100384.16;;;26.24;55.41
41254;BME280;26987;59.928;30.306;2023-08-08T09:42:02;100381.41;;;26.15;56.95
41254;BME280;26987;59.928;30.306;2023-08-08T09:44:30;100384.63;;;26.09;56.46
41254;BME280;26987;59.928;30.306;2023-08-08T09:47:02;100379.47;;;26.07;56.97
41254;BME280;26987;59.928;30.306;2023-08-08T09:49:31;100402.56;;;26.15;56.08
41254;BME280;26987;59.928;30.306;2023-08-08T09:52:02;100383.00;;;25.99;54.05
41254;BME280;26987;59.928;30.306;2023-08-08T09:54:32;100404.00;;;25.94;54.59
41254;BME280;26987;59.928;30.306;2023-08-08T09:57:02;100405.59;;;25.87;55.45
41254;BME280;26987;59.928;30.306;2023-08-08T09:59:35;100402.03;;;25.86;53.93
41254;BME280;26987;59.928;30.306;2023-08-08T10:02:05;100414.97;;;25.86;53.42
41254;BME280;26987;59.928;30.306;2023-08-08T10:04:35;100412.22;;;25.86;53.40
41254;BME280;26987;59.928;30.306;2023-08-08T10:07:04;100418.50;;;25.86;54.86
41254;BME280;26987;59.928;30.306;2023-08-08T10:09:33;100391.91;;;25.55;54.82
41254;BME280;26987;59.928;30.306;2023-08-08T10:12:06;100379.19;;;25.27;53.78
41254;BME280;26987;59.928;30.306;2023-08-08T10:14:35;100410.84;;;25.34;55.31
41254;BME280;26987;59.928;30.306;2023-08-08T10:17:04;100413.31;;;25.44;55.40
41254;BME280;26987;59.928;30.306;2023-08-08T10:19:32;100405.59;;;25.46;55.33
41254;BME280;26987;59.928;30.306;2023-08-08T10:22:04;100424.78;;;25.46;55.14
41254;BME280;26987;59.928;30.306;2023-08-08T10:24:35;100422.41;;;25.53;55.47
41254;BME280;26987;59.928;30.306;2023-08-08T10:27:05;100419.53;;;25.59;54.66
41254;BME280;26987;59.928;30.306;2023-08-08T10:29:33;100392.72;;;25.15;55.02
41254;BME280;26987;59.928;30.306;2023-08-08T10:32:02;100428.31;;;25.38;54.58
41254;BME280;26987;59.928;30.306;2023-08-08T10:34:37;100446.50;;;25.34;55.54
41254;BME280;26987;59.928;30.306;2023-08-08T10:37:08;100432.19;;;25.14;54.99
41254;BME280;26987;59.928;30.306;2023-08-08T10:39:36;100434.72;;;25.24;55.47
41254;BME280;26987;59.928;30.306;2023-08-08T10:42:06;100432.00;;;25.33;54.40
41254;BME280;26987;59.928;30.306;2023-08-08T10:44:40;100451.09;;;25.47;53.64
41254;BME280;26987;59.928;30.306;2023-08-08T10:47:11;100444.00;;;25.46;53.03
41254;BME280;26987;59.928;30.306;2023-08-08T10:49:41;100451.09;;;25.47;53.60
41254;BME280;26987;59.928;30.306;2023-08-08T10:52:13;100453.84;;;25.47;53.23
41254;BME280;26987;59.928;30.306;2023-08-08T10:54:52;100453.84;;;25.47;52.69
41254;BME280;26987;59.928;30.306;2023-08-08T10:57:26;100458.22;;;25.48;52.76
41254;BME280;26987;59.928;30.306;2023-08-08T10:59:54;100454.25;;;25.31;53.06
41254;BME280;26987;59.928;30.306;2023-08-08T11:02:22;100469.34;;;25.20;52.36
41254;BME280;26987;59.928;30.306;2023-08-08T11:04:50;100465.69;;;25.02;52.60
41254;BME280;26987;59.928;30.306;2023-08-08T11:07:18;100468.19;;;24.89;53.13
41254;BME280;26987;59.928;30.306;2023-08-08T11:09:47;100478.09;;;24.85;53.16
41254;BME280;26987;59.928;30.306;2023-08-08T11:12:16;100480.06;;;24.85;53.36
41254;BME280;26987;59.928;30.306;2023-08-08T11:14:45;100498.91;;;24.63;53.00
41254;BME280;26987;59.928;30.306;2023-08-08T11:17:13;100490.91;;;24.53;53.94
41254;BME280;26987;59.928;30.306;2023-08-08T11:19:41;100491.09;;;24.56;54.40
41254;BME280;26987;59.928;30.306;2023-08-08T11:22:09;100456.06;;;24.30;54.04
41254;BME280;26987;59.928;30.306;2023-08-08T11:24:38;100494.25;;;24.64;52.79
41254;BME280;26987;59.928;30.306;2023-08-08T11:27:06;100496.66;;;24.65;53.40
41254;BME280;26987;59.928;30.306;2023-08-08T11:29:34;100482.16;;;24.65;52.43
41254;BME280;26987;59.928;30.306;2023-08-08T11:32:03;100497.06;;;24.73;52.90
41254;BME280;26987;59.928;30.306;2023-08-08T11:34:32;100497.13;;;24.81;52.68
41254;BME280;26987;59.928;30.306;2023-08-08T11:37:01;100499.72;;;24.87;52.17
41254;BME280;26987;59.928;30.306;2023-08-08T11:39:29;100500.16;;;24.94;52.03
41254;BME280;26987;59.928;30.306;2023-08-08T11:41:57;100510.41;;;24.88;50.74
41254;BME280;26987;59.928;30.306;2023-08-08T11:44:25;100517.63;;;24.84;50.72
41254;BME280;26987;59.928;30.306;2023-08-08T11:46:53;100509.31;;;24.75;50.15
41254;BME280;26987;59.928;30.306;2023-08-08T11:49:22;100510.94;;;24.76;49.17
41254;BME280;26987;59.928;30.306;2023-08-08T11:51:50;100500.72;;;24.68;50.21
41254;BME280;26987;59.928;30.306;2023-08-08T11:54:21;100504.69;;;24.62;51.20
41254;BME280;26987;59.928;30.306;2023-08-08T11:56:49;100514.66;;;24.58;52.21
41254;BME280;26987;59.928;30.306;2023-08-08T11:59:19;100513.91;;;24.66;51.41
41254;BME280;26987;59.928;30.306;2023-08-08T12:01:49;100525.00;;;24.61;51.23
41254;BME280;26987;59.928;30.306;2023-08-08T12:04:21;100515.97;;;24.46;51.49
41254;BME280;26987;59.928;30.306;2023-08-08T12:06:49;100517.72;;;24.42;51.95
41254;BME280;26987;59.928;30.306;2023-08-08T12:09:17;100526.41;;;24.58;51.51
41254;BME280;26987;59.928;30.306;2023-08-08T12:11:46;100536.81;;;24.70;51.25
41254;BME280;26987;59.928;30.306;2023-08-08T12:14:13;100524.19;;;24.60;50.15
41254;BME280;26987;59.928;30.306;2023-08-08T12:16:42;100522.47;;;24.50;49.67
41254;BME280;26987;59.928;30.306;2023-08-08T12:19:10;100531.78;;;24.49;49.76
41254;BME280;26987;59.928;30.306;2023-08-08T12:21:42;100533.44;;;24.50;50.38
41254;BME280;26987;59.928;30.306;2023-08-08T12:24:09;100537.28;;;24.49;50.08
41254;BME280;26987;59.928;30.306;2023-08-08T12:26:37;100542.75;;;24.49;50.07
41254;BME280;26987;59.928;30.306;2023-08-08T12:29:05;100541.84;;;24.54;49.44
41254;BME280;26987;59.928;30.306;2023-08-08T12:31:33;100547.41;;;24.63;50.48
41254;BME280;26987;59.928;30.306;2023-08-08T12:34:01;100532.47;;;24.69;49.60
41254;BME280;26987;59.928;30.306;2023-08-08T12:36:29;100541.16;;;24.99;50.03
41254;BME280;26987;59.928;30.306;2023-08-08T12:38:58;100548.41;;;25.18;48.71
41254;BME280;26987;59.928;30.306;2023-08-08T12:41:26;100538.44;;;25.22;48.92
41254;BME280;26987;59.928;30.306;2023-08-08T12:43:55;100539.78;;;25.34;48.45
41254;BME280;26987;59.928;30.306;2023-08-08T12:46:23;100536.31;;;25.42;47.61
41254;BME280;26987;59.928;30.306;2023-08-08T12:48:51;100545.41;;;25.51;47.47